sensor_id;sensor_type;location;lat;lon;timestamp;temperature;humidity
14014;DHT22;49110;52.584;13.408;2023-02-24T05:30:18;6.60;99.10
14014;DHT22;49110;52.584;13.408;2023-02-24T05:31:21;6.60;98.70
14014;DHT22;49110;52.584;13.408;2023-02-24T05:32:22;6.50;98.90
14014;DHT22;49110;52.584;13.408;2023-02-24T05:33:25;6.60;99.10
14014;DHT22;49110;52.584;13.408;2023-02-24T05:34:30;6.50;99.10
14014;DHT22;49110;52.584;13.408;2023-02-24T05:35:30;6.50;99.30
14014;DHT22;49110;52.584;13.408;2023-02-24T05:36:37;6.60;99.40
14014;DHT22;49110;52.584;13.408;2023-02-24T05:37:39;6.50;99.20
14014;DHT22;49110;52.584;13.408;2023-02-24T05:38:42;6.60;99.20
14014;DHT22;49110;52.584;13.408;2023-02-24T05:39:43;6.60;98.90
14014;DHT22;49110;52.584;13.408;2023-02-24T05:40:44;6.60;99.00
14014;DHT22;49110;52.584;13.408;2023-02-24T05:41:48;6.60;99.10
14014;DHT22;49110;52.584;13.408;2023-02-24T05:42:48;6.60;99.10
14014;DHT22;49110;52.584;13.408;2023-02-24T05:43:54;6.60;99.20
14014;DHT22;49110;52.584;13.408;2023-02-24T05:44:54;6.60;99.20
14014;DHT22;49110;52.584;13.408;2023-02-24T05:45:59;6.60;99.20
14014;DHT22;49110;52.584;13.408;2023-02-24T05:46:59;6.60;99.10
14014;DHT22;49110;52.584;13.408;2023-02-24T05:48:00;6.60;99.00
14014;DHT22;49110;52.584;13.408;2023-02-24T05:49:04;6.60;99.00
14014;DHT22;49110;52.584;13.408;2023-02-24T05:50:08;6.60;99.00
14014;DHT22;49110;52.584;13.408;2023-02-24T05:51:10;6.60;99.20
14014;DHT22;49110;52.584;13.408;2023-02-24T05:52:11;6.60;99.30
14014;DHT22;49110;52.584;13.408;2023-02-24T05:53:13;6.60;99.30
14014;DHT22;49110;52.584;13.408;2023-02-24T05:54:14;6.60;99.40
14014;DHT22;49110;52.584;13.408;2023-02-24T05:55:15;6.60;99.30
14014;DHT22;49110;52.584;13.408;2023-02-24T05:56:15;6.60;99.20
14014;DHT22;49110;52.584;13.408;2023-02-24T05:57:19;6.60;99.30
14014;DHT22;49110;52.584;13.408;2023-02-24T05:58:20;6.60;99.40
14014;DHT22;49110;52.584;13.408;2023-02-24T05:59:23;6.70;99.30
14014;DHT22;49110;52.584;13.408;2023-02-24T06:00:23;6.60;99.20
14014;DHT22;49110;52.584;13.408;2023-02-24T06:01:25;6.70;99.30
14014;DHT22;49110;52.584;13.408;2023-02-24T06:02:29;6.70;99.30
14014;DHT22;49110;52.584;13.408;2023-02-24T06:03:36;6.70;99.20
14014;DHT22;49110;52.584;13.408;2023-02-24T06:04:39;6.70;99.00
14014;DHT22;49110;52.584;13.408;2023-02-24T06:05:53;6.60;98.90
14014;DHT22;49110;52.584;13.408;2023-02-24T06:06:54;6.60;99.00
14014;DHT22;49110;52.584;13.408;2023-02-24T06:07:56;6.60;99.20
14014;DHT22;49110;52.584;13.408;2023-02-24T06:09:12;6.70;99.40
14014;DHT22;49110;52.584;13.408;2023-02-24T06:10:12;6.60;99.30
14014;DHT22;49110;52.584;13.408;2023-02-24T06:11:18;6.70;99.20
14014;DHT22;49110;52.584;13.408;2023-02-24T06:12:27;6.70;99.20
14014;DHT22;49110;52.584;13.408;2023-02-24T06:13:28;6.70;99.30
14014;DHT22;49110;52.584;13.408;2023-02-24T06:14:28;6.70;99.20
14014;DHT22;49110;52.584;13.408;2023-02-24T06:15:29;6.70;98.80
14014;DHT22;49110;52.584;13.408;2023-02-24T06:16:35;6.70;98.60
14014;DHT22;49110;52.584;13.408;2023-02-24T06:17:36;6.70;98.90
14014;DHT22;49110;52.584;13.408;2023-02-24T06:18:36;6.70;98.80
14014;DHT22;49110;52.584;13.408;2023-02-24T06:19:37;6.70;98.90
14014;DHT22;49110;52.584;13.408;2023-02-24T06:20:40;6.70;99.00
14014;DHT22;49110;52.584;13.408;2023-02-24T06:21:41;6.70;99.30
14014;DHT22;49110;52.584;13.408;2023-02-24T06:22:42;6.70;99.10
14014;DHT22;49110;52.584;13.408;2023-02-24T06:23:42;6.70;98.80
14014;DHT22;49110;52.584;13.408;2023-02-24T06:24:42;6.60;98.60
14014;DHT22;49110;52.584;13.408;2023-02-24T06:25:49;6.70;98.90
14014;DHT22;49110;52.584;13.408;2023-02-24T06:26:49;6.70;99.10
14014;DHT22;49110;52.584;13.408;2023-02-24T06:27:53;6.70;98.90
14014;DHT22;49110;52.584;13.408;2023-02-24T06:28:56;6.70;98.90
14014;DHT22;49110;52.584;13.408;2023-02-24T06:29:57;6.80;98.70
14014;DHT22;49110;52.584;13.408;2023-02-24T06:31:02;6.80;98.70
14014;DHT22;49110;52.584;13.408;2023-02-24T06:32:05;6.80;98.50
14014;DHT22;49110;52.584;13.408;2023-02-24T06:33:07;6.80;98.70
14014;DHT22;49110;52.584;13.408;2023-02-24T06:34:10;6.80;98.80
14014;DHT22;49110;52.584;13.408;2023-02-24T06:35:12;6.80;98.50
14014;DHT22;49110;52.584;13.408;2023-02-24T06:36:13;6.80;98.40
14014;DHT22;49110;52.584;13.408;2023-02-24T06:37:20;6.80;98.50
14014;DHT22;49110;52.584;13.408;2023-02-24T06:38:22;6.80;98.40
14014;DHT22;49110;52.584;13.408;2023-02-24T06:39:22;6.80;98.20
14014;DHT22;49110;52.584;13.408;2023-02-24T06:40:23;6.80;98.40
14014;DHT22;49110;52.584;13.408;2023-02-24T06:41:23;6.80;98.50
14014;DHT22;49110;52.584;13.408;2023-02-24T06:42:28;6.90;98.60
14014;DHT22;49110;52.584;13.408;2023-02-24T06:43:32;6.90;98.80
14014;DHT22;49110;52.584;13.408;2023-02-24T06:44:34;6.90;98.60
14014;DHT22;49110;52.584;13.408;2023-02-24T06:45:34;6.90;98.60
14014;DHT22;49110;52.584;13.408;2023-02-24T06:46:35;6.90;99.00
14014;DHT22;49110;52.584;13.408;2023-02-24T06:47:36;6.80;98.40
14014;DHT22;49110;52.584;13.408;2023-02-24T06:48:37;6.80;98.40
14014;DHT22;49110;52.584;13.408;2023-02-24T06:49:38;6.80;98.80
14014;DHT22;49110;52.584;13.408;2023-02-24T06:50:38;6.80;98.80
14014;DHT22;49110;52.584;13.408;2023-02-24T06:51:39;6.90;98.70
14014;DHT22;49110;52.584;13.408;2023-02-24T06:52:40;6.90;98.70
14014;DHT22;49110;52.584;13.408;2023-02-24T06:53:43;6.90;98.80
14014;DHT22;49110;52.584;13.408;2023-02-24T06:54:45;6.90;98.70
14014;DHT22;49110;52.584;13.408;2023-02-24T06:55:46;7.00;98.60
14014;DHT22;49110;52.584;13.408;2023-02-24T06:56:50;6.90;98.30
14014;DHT22;49110;52.584;13.408;2023-02-24T06:57:52;6.90;98.30
14014;DHT22;49110;52.584;13.408;2023-02-24T06:58:56;6.90;98.30
14014;DHT22;49110;52.584;13.408;2023-02-24T06:59:57;6.90;98.30
14014;DHT22;49110;52.584;13.408;2023-02-24T07:00:58;7.00;98.30
14014;DHT22;49110;52.584;13.408;2023-02-24T07:01:59;6.90;98.10
14014;DHT22;49110;52.584;13.408;2023-02-24T07:03:07;6.90;97.90
14014;DHT22;49110;52.584;13.408;2023-02-24T07:04:15;6.90;98.20
14014;DHT22;49110;52.584;13.408;2023-02-24T07:05:19;6.90;98.40
14014;DHT22;49110;52.584;13.408;2023-02-24T07:06:23;6.90;98.20
14014;DHT22;49110;52.584;13.408;2023-02-24T07:07:24;6.90;98.30
14014;DHT22;49110;52.584;13.408;2023-02-24T07:08:25;6.90;98.20
14014;DHT22;49110;52.584;13.408;2023-02-24T07:09:29;6.90;98.10
14014;DHT22;49110;52.584;13.408;2023-02-24T07:10:31;6.90;98.20
14014;DHT22;49110;52.584;13.408;2023-02-24T07:11:33;6.90;98.20
14014;DHT22;49110;52.584;13.408;2023-02-24T07:12:34;6.90;98.10
14014;DHT22;49110;52.584;13.408;2023-02-24T07:13:35;6.90;97.90
14014;DHT22;49110;52.584;13.408;2023-02-24T07:14:37;6.80;97.90
14014;DHT22;49110;52.584;13.408;2023-02-24T07:15:38;6.80;97.80
14014;DHT22;49110;52.584;13.408;2023-02-24T07:16:39;6.80;97.90
14014;DHT22;49110;52.584;13.408;2023-02-24T07:17:44;6.80;98.60
14014;DHT22;49110;52.584;13.408;2023-02-24T07:18:45;6.90;99.90
14014;DHT22;49110;52.584;13.408;2023-02-24T07:19:47;6.90;99.40
14014;DHT22;49110;52.584;13.408;2023-02-24T07:20:48;6.90;99.10
14014;DHT22;49110;52.584;13.408;2023-02-24T07:21:49;6.90;98.30
14014;DHT22;49110;52.584;13.408;2023-02-24T07:22:51;7.00;98.70
14014;DHT22;49110;52.584;13.408;2023-02-24T07:23:52;7.00;98.30
14014;DHT22;49110;52.584;13.408;2023-02-24T07:24:58;7.00;98.40
14014;DHT22;49110;52.584;13.408;2023-02-24T07:26:06;7.00;98.40
14014;DHT22;49110;52.584;13.408;2023-02-24T07:27:14;7.00;98.10
14014;DHT22;49110;52.584;13.408;2023-02-24T07:28:21;7.00;98.00
14014;DHT22;49110;52.584;13.408;2023-02-24T07:29:26;7.00;97.60
14014;DHT22;49110;52.584;13.408;2023-02-24T07:30:28;7.00;97.70
14014;DHT22;49110;52.584;13.408;2023-02-24T07:31:29;7.00;98.10
14014;DHT22;49110;52.584;13.408;2023-02-24T07:32:33;7.00;98.00
14014;DHT22;49110;52.584;13.408;2023-02-24T07:33:35;7.00;97.50
14014;DHT22;49110;52.584;13.408;2023-02-24T07:34:36;7.10;97.70
14014;DHT22;49110;52.584;13.408;2023-02-24T07:35:40;7.00;97.00
14014;DHT22;49110;52.584;13.408;2023-02-24T07:36:41;7.00;97.20
14014;DHT22;49110;52.584;13.408;2023-02-24T07:37:48;7.10;97.30
14014;DHT22;49110;52.584;13.408;2023-02-24T07:38:51;7.10;96.90
14014;DHT22;49110;52.584;13.408;2023-02-24T07:39:52;7.10;96.70
14014;DHT22;49110;52.584;13.408;2023-02-24T07:40:57;7.10;96.30
14014;DHT22;49110;52.584;13.408;2023-02-24T07:41:58;7.10;96.80
14014;DHT22;49110;52.584;13.408;2023-02-24T07:43:01;7.10;96.60
14014;DHT22;49110;52.584;13.408;2023-02-24T07:44:02;7.10;96.70
14014;DHT22;49110;52.584;13.408;2023-02-24T07:45:05;7.10;96.10
14014;DHT22;49110;52.584;13.408;2023-02-24T07:46:15;7.00;96.20
14014;DHT22;49110;52.584;13.408;2023-02-24T07:47:18;7.10;96.50
14014;DHT22;49110;52.584;13.408;2023-02-24T07:48:20;7.10;96.50
14014;DHT22;49110;52.584;13.408;2023-02-24T07:49:22;7.10;96.60
14014;DHT22;49110;52.584;13.408;2023-02-24T07:50:25;7.10;96.00
14014;DHT22;49110;52.584;13.408;2023-02-24T07:51:27;7.10;96.00
14014;DHT22;49110;52.584;13.408;2023-02-24T07:52:28;7.20;96.10
14014;DHT22;49110;52.584;13.408;2023-02-24T07:53:31;7.20;96.00
14014;DHT22;49110;52.584;13.408;2023-02-24T07:54:33;7.10;95.60
14014;DHT22;49110;52.584;13.408;2023-02-24T07:55:34;7.20;96.10
14014;DHT22;49110;52.584;13.408;2023-02-24T07:56:35;7.20;95.30
14014;DHT22;49110;52.584;13.408;2023-02-24T07:57:46;7.10;95.00
14014;DHT22;49110;52.584;13.408;2023-02-24T07:58:48;7.10;94.50
14014;DHT22;49110;52.584;13.408;2023-02-24T07:59:58;7.10;94.20
14014;DHT22;49110;52.584;13.408;2023-02-24T08:01:00;7.20;94.30
14014;DHT22;49110;52.584;13.408;2023-02-24T08:02:09;7.20;94.20
14014;DHT22;49110;52.584;13.408;2023-02-24T08:03:10;7.20;94.20
14014;DHT22;49110;52.584;13.408;2023-02-24T08:04:11;7.20;93.70
14014;DHT22;49110;52.584;13.408;2023-02-24T08:05:16;7.20;93.80
14014;DHT22;49110;52.584;13.408;2023-02-24T08:06:19;7.20;93.70
14014;DHT22;49110;52.584;13.408;2023-02-24T08:07:26;7.30;93.90
14014;DHT22;49110;52.584;13.408;2023-02-24T08:08:29;7.20;94.00
14014;DHT22;49110;52.584;13.408;2023-02-24T08:09:32;7.30;93.90
14014;DHT22;49110;52.584;13.408;2023-02-24T08:10:45;7.30;93.90
14014;DHT22;49110;52.584;13.408;2023-02-24T08:11:53;7.30;93.10
14014;DHT22;49110;52.584;13.408;2023-02-24T08:12:55;7.30;92.90
14014;DHT22;49110;52.584;13.408;2023-02-24T08:13:56;7.20;92.70
14014;DHT22;49110;52.584;13.408;2023-02-24T08:14:58;7.20;92.90
14014;DHT22;49110;52.584;13.408;2023-02-24T08:15:59;7.30;93.00
14014;DHT22;49110;52.584;13.408;2023-02-24T08:17:01;7.30;93.00
14014;DHT22;49110;52.584;13.408;2023-02-24T08:18:04;7.30;92.70
14014;DHT22;49110;52.584;13.408;2023-02-24T08:19:05;7.20;92.80
14014;DHT22;49110;52.584;13.408;2023-02-24T08:20:06;7.20;92.70
14014;DHT22;49110;52.584;13.408;2023-02-24T08:21:16;7.20;92.80
14014;DHT22;49110;52.584;13.408;2023-02-24T08:22:18;7.20;92.60
14014;DHT22;49110;52.584;13.408;2023-02-24T08:23:19;7.30;92.70
14014;DHT22;49110;52.584;13.408;2023-02-24T08:24:21;7.20;92.90
14014;DHT22;49110;52.584;13.408;2023-02-24T08:25:26;7.20;92.50
14014;DHT22;49110;52.584;13.408;2023-02-24T08:26:34;7.30;92.50
14014;DHT22;49110;52.584;13.408;2023-02-24T08:27:45;7.20;92.70
14014;DHT22;49110;52.584;13.408;2023-02-24T08:28:47;7.30;92.50
14014;DHT22;49110;52.584;13.408;2023-02-24T08:29:50;7.30;92.50
14014;DHT22;49110;52.584;13.408;2023-02-24T08:31:03;7.40;92.70
14014;DHT22;49110;52.584;13.408;2023-02-24T08:32:03;7.50;92.50
14014;DHT22;49110;52.584;13.408;2023-02-24T08:33:10;7.50;92.40
14014;DHT22;49110;52.584;13.408;2023-02-24T08:34:10;7.50;92.20
14014;DHT22;49110;52.584;13.408;2023-02-24T08:35:17;7.60;92.40
14014;DHT22;49110;52.584;13.408;2023-02-24T08:36:17;7.60;92.40
14014;DHT22;49110;52.584;13.408;2023-02-24T08:37:21;7.60;92.50
14014;DHT22;49110;52.584;13.408;2023-02-24T08:38:22;7.60;92.30
14014;DHT22;49110;52.584;13.408;2023-02-24T08:39:23;7.60;92.40
14014;DHT22;49110;52.584;13.408;2023-02-24T08:40:30;7.60;92.50
14014;DHT22;49110;52.584;13.408;2023-02-24T08:41:31;7.70;92.60
14014;DHT22;49110;52.584;13.408;2023-02-24T08:42:53;7.70;92.60
14014;DHT22;49110;52.584;13.408;2023-02-24T08:43:54;7.70;92.30
14014;DHT22;49110;52.584;13.408;2023-02-24T08:44:54;7.80;92.40
14014;DHT22;49110;52.584;13.408;2023-02-24T08:45:58;7.80;92.40
14014;DHT22;49110;52.584;13.408;2023-02-24T08:47:00;7.80;92.50
14014;DHT22;49110;52.584;13.408;2023-02-24T08:48:04;7.80;92.60
14014;DHT22;49110;52.584;13.408;2023-02-24T08:49:17;7.80;92.70
14014;DHT22;49110;52.584;13.408;2023-02-24T08:50:18;7.90;92.60
14014;DHT22;49110;52.584;13.408;2023-02-24T08:51:33;7.90;92.60
14014;DHT22;49110;52.584;13.408;2023-02-24T08:52:36;8.00;92.70
14014;DHT22;49110;52.584;13.408;2023-02-24T08:53:38;7.90;92.50
14014;DHT22;49110;52.584;13.408;2023-02-24T08:54:39;8.00;92.70
14014;DHT22;49110;52.584;13.408;2023-02-24T08:55:48;8.00;92.50
14014;DHT22;49110;52.584;13.408;2023-02-24T08:56:53;8.00;92.40
14014;DHT22;49110;52.584;13.408;2023-02-24T08:57:58;8.10;92.40
14014;DHT22;49110;52.584;13.408;2023-02-24T08:59:05;8.10;92.10
14014;DHT22;49110;52.584;13.408;2023-02-24T09:00:06;8.00;91.80
14014;DHT22;49110;52.584;13.408;2023-02-24T09:02:20;8.00;91.80
14014;DHT22;49110;52.584;13.408;2023-02-24T09:03:26;7.90;91.30
14014;DHT22;49110;52.584;13.408;2023-02-24T09:04:27;7.90;91.80
14014;DHT22;49110;52.584;13.408;2023-02-24T09:05:27;7.90;91.80
14014;DHT22;49110;52.584;13.408;2023-02-24T09:06:47;7.90;91.90
14014;DHT22;49110;52.584;13.408;2023-02-24T09:07:48;7.90;91.90
14014;DHT22;49110;52.584;13.408;2023-02-24T09:08:55;7.90;91.60
14014;DHT22;49110;52.584;13.408;2023-02-24T09:10:17;7.90;91.80
14014;DHT22;49110;52.584;13.408;2023-02-24T09:11:18;8.00;91.70
14014;DHT22;49110;52.584;13.408;2023-02-24T09:12:24;7.90;91.70
14014;DHT22;49110;52.584;13.408;2023-02-24T09:13:25;7.90;91.60
14014;DHT22;49110;52.584;13.408;2023-02-24T09:14:33;7.90;91.90
14014;DHT22;49110;52.584;13.408;2023-02-24T09:15:37;7.90;92.10
14014;DHT22;49110;52.584;13.408;2023-02-24T09:16:42;7.90;92.30
14014;DHT22;49110;52.584;13.408;2023-02-24T09:18:01;7.90;92.30
14014;DHT22;49110;52.584;13.408;2023-02-24T09:19:06;7.90;92.20
14014;DHT22;49110;52.584;13.408;2023-02-24T09:20:25;7.90;92.30
14014;DHT22;49110;52.584;13.408;2023-02-24T09:21:26;7.90;92.40
14014;DHT22;49110;52.584;13.408;2023-02-24T09:22:46;7.90;92.40
14014;DHT22;49110;52.584;13.408;2023-02-24T09:24:06;7.90;92.20
14014;DHT22;49110;52.584;13.408;2023-02-24T09:25:13;7.80;91.90
14014;DHT22;49110;52.584;13.408;2023-02-24T09:26:17;7.80;92.10
14014;DHT22;49110;52.584;13.408;2023-02-24T09:27:19;7.70;92.30
14014;DHT22;49110;52.584;13.408;2023-02-24T09:28:24;7.80;92.50
14014;DHT22;49110;52.584;13.408;2023-02-24T09:29:25;7.70;92.80
14014;DHT22;49110;52.584;13.408;2023-02-24T09:30:53;7.80;92.60
14014;DHT22;49110;52.584;13.408;2023-02-24T09:31:54;7.80;92.50
14014;DHT22;49110;52.584;13.408;2023-02-24T09:33:30;7.90;92.50
14014;DHT22;49110;52.584;13.408;2023-02-24T09:34:40;8.00;92.50
14014;DHT22;49110;52.584;13.408;2023-02-24T09:35:45;8.00;92.40
14014;DHT22;49110;52.584;13.408;2023-02-24T09:36:46;8.10;92.70
14014;DHT22;49110;52.584;13.408;2023-02-24T09:38:03;8.10;92.30
14014;DHT22;49110;52.584;13.408;2023-02-24T09:39:07;8.10;92.20
14014;DHT22;49110;52.584;13.408;2023-02-24T09:40:09;8.10;92.20
14014;DHT22;49110;52.584;13.408;2023-02-24T09:41:22;8.10;92.20
14014;DHT22;49110;52.584;13.408;2023-02-24T09:42:31;8.10;92.50
14014;DHT22;49110;52.584;13.408;2023-02-24T09:43:45;8.00;92.10
14014;DHT22;49110;52.584;13.408;2023-02-24T09:44:49;8.00;92.00
14014;DHT22;49110;52.584;13.408;2023-02-24T09:46:05;7.90;92.00
14014;DHT22;49110;52.584;13.408;2023-02-24T09:49:16;7.90;92.40
14014;DHT22;49110;52.584;13.408;2023-02-24T09:51:21;8.10;92.30
14014;DHT22;49110;52.584;13.408;2023-02-24T09:52:28;8.20;92.10
14014;DHT22;49110;52.584;13.408;2023-02-24T09:53:41;8.20;92.00
14014;DHT22;49110;52.584;13.408;2023-02-24T09:54:51;8.20;91.80
14014;DHT22;49110;52.584;13.408;2023-02-24T09:56:28;8.30;92.10
14014;DHT22;49110;52.584;13.408;2023-02-24T09:57:39;8.30;91.90
14014;DHT22;49110;52.584;13.408;2023-02-24T09:59:11;8.30;92.10
14014;DHT22;49110;52.584;13.408;2023-02-24T10:00:17;8.30;92.10
14014;DHT22;49110;52.584;13.408;2023-02-24T10:01:45;8.30;91.90
14014;DHT22;49110;52.584;13.408;2023-02-24T10:02:56;8.20;91.80
14014;DHT22;49110;52.584;13.408;2023-02-24T10:04:11;8.20;92.10
14014;DHT22;49110;52.584;13.408;2023-02-24T10:05:33;8.20;91.90
14014;DHT22;49110;52.584;13.408;2023-02-24T10:06:43;8.20;91.80
14014;DHT22;49110;52.584;13.408;2023-02-24T10:07:45;8.20;92.10
14014;DHT22;49110;52.584;13.408;2023-02-24T10:09:00;8.20;92.20
14014;DHT22;49110;52.584;13.408;2023-02-24T10:10:16;8.20;92.40
14014;DHT22;49110;52.584;13.408;2023-02-24T10:11:28;8.20;92.40
14014;DHT22;49110;52.584;13.408;2023-02-24T10:12:33;8.20;91.90
14014;DHT22;49110;52.584;13.408;2023-02-24T10:13:47;8.20;91.70
14014;DHT22;49110;52.584;13.408;2023-02-24T10:14:53;8.30;91.80
14014;DHT22;49110;52.584;13.408;2023-02-24T10:16:19;8.30;91.80
14014;DHT22;49110;52.584;13.408;2023-02-24T10:17:26;8.30;92.10
14014;DHT22;49110;52.584;13.408;2023-02-24T10:19:22;8.40;91.70
14014;DHT22;49110;52.584;13.408;2023-02-24T10:20:23;8.40;91.40
14014;DHT22;49110;52.584;13.408;2023-02-24T10:21:46;8.40;91.20
14014;DHT22;49110;52.584;13.408;2023-02-24T10:23:09;8.40;91.10
14014;DHT22;49110;52.584;13.408;2023-02-24T10:24:28;8.40;91.30
14014;DHT22;49110;52.584;13.408;2023-02-24T10:25:50;8.30;91.10
14014;DHT22;49110;52.584;13.408;2023-02-24T10:27:09;8.40;91.40
14014;DHT22;49110;52.584;13.408;2023-02-24T10:28:27;8.40;91.20
14014;DHT22;49110;52.584;13.408;2023-02-24T10:29:38;8.30;91.00
14014;DHT22;49110;52.584;13.408;2023-02-24T10:31:00;8.20;91.10
14014;DHT22;49110;52.584;13.408;2023-02-24T10:33:29;8.10;91.00
14014;DHT22;49110;52.584;13.408;2023-02-24T10:34:37;8.20;91.00
14014;DHT22;49110;52.584;13.408;2023-02-24T10:35:38;8.20;91.00
14014;DHT22;49110;52.584;13.408;2023-02-24T10:36:38;8.20;91.00
14014;DHT22;49110;52.584;13.408;2023-02-24T10:37:40;8.20;91.00
14014;DHT22;49110;52.584;13.408;2023-02-24T10:38:42;8.30;91.10
14014;DHT22;49110;52.584;13.408;2023-02-24T10:39:50;8.20;90.70
14014;DHT22;49110;52.584;13.408;2023-02-24T10:40:56;8.20;90.90
14014;DHT22;49110;52.584;13.408;2023-02-24T10:42:02;8.20;90.80
14014;DHT22;49110;52.584;13.408;2023-02-24T10:43:19;8.10;91.00
14014;DHT22;49110;52.584;13.408;2023-02-24T10:44:29;8.10;91.10
14014;DHT22;49110;52.584;13.408;2023-02-24T10:45:39;8.10;91.30
14014;DHT22;49110;52.584;13.408;2023-02-24T10:46:46;8.00;91.40
14014;DHT22;49110;52.584;13.408;2023-02-24T10:47:59;7.90;91.90
14014;DHT22;49110;52.584;13.408;2023-02-24T10:49:08;7.80;92.10
14014;DHT22;49110;52.584;13.408;2023-02-24T10:50:27;7.80;92.90
14014;DHT22;49110;52.584;13.408;2023-02-24T10:51:37;7.80;92.90
14014;DHT22;49110;52.584;13.408;2023-02-24T10:52:41;7.80;93.10
14014;DHT22;49110;52.584;13.408;2023-02-24T10:53:50;7.90;93.30
14014;DHT22;49110;52.584;13.408;2023-02-24T10:55:25;7.90;93.40
14014;DHT22;49110;52.584;13.408;2023-02-24T10:56:27;8.00;93.40
14014;DHT22;49110;52.584;13.408;2023-02-24T10:57:44;8.10;93.70
14014;DHT22;49110;52.584;13.408;2023-02-24T10:59:20;8.10;94.00
14014;DHT22;49110;52.584;13.408;2023-02-24T11:00:24;8.00;94.20
14014;DHT22;49110;52.584;13.408;2023-02-24T11:01:53;7.90;94.60
14014;DHT22;49110;52.584;13.408;2023-02-24T11:02:54;7.90;95.00
14014;DHT22;49110;52.584;13.408;2023-02-24T11:04:13;7.90;95.30
14014;DHT22;49110;52.584;13.408;2023-02-24T11:05:37;7.80;95.70
14014;DHT22;49110;52.584;13.408;2023-02-24T11:06:38;7.70;96.20
14014;DHT22;49110;52.584;13.408;2023-02-24T11:08:10;7.60;96.50
14014;DHT22;49110;52.584;13.408;2023-02-24T11:09:17;7.60;97.00
14014;DHT22;49110;52.584;13.408;2023-02-24T11:10:28;7.60;97.00
14014;DHT22;49110;52.584;13.408;2023-02-24T11:11:42;7.60;97.10
14014;DHT22;49110;52.584;13.408;2023-02-24T11:13:01;7.60;97.70
14014;DHT22;49110;52.584;13.408;2023-02-24T11:14:20;7.70;97.60
14014;DHT22;49110;52.584;13.408;2023-02-24T11:15:49;7.70;97.90
14014;DHT22;49110;52.584;13.408;2023-02-24T11:17:20;7.70;98.30
14014;DHT22;49110;52.584;13.408;2023-02-24T11:18:27;7.70;98.30
14014;DHT22;49110;52.584;13.408;2023-02-24T11:19:37;7.50;98.00
14014;DHT22;49110;52.584;13.408;2023-02-24T11:20:50;7.50;98.40
14014;DHT22;49110;52.584;13.408;2023-02-24T11:21:54;7.50;98.80
14014;DHT22;49110;52.584;13.408;2023-02-24T11:22:55;7.50;98.80
14014;DHT22;49110;52.584;13.408;2023-02-24T11:23:58;7.50;99.10
14014;DHT22;49110;52.584;13.408;2023-02-24T11:25:19;7.50;99.20
14014;DHT22;49110;52.584;13.408;2023-02-24T11:26:25;7.50;99.40
14014;DHT22;49110;52.584;13.408;2023-02-24T11:27:31;7.50;99.00
14014;DHT22;49110;52.584;13.408;2023-02-24T11:28:45;7.50;99.20
14014;DHT22;49110;52.584;13.408;2023-02-24T11:30:00;7.50;99.50
14014;DHT22;49110;52.584;13.408;2023-02-24T11:31:14;7.50;99.90
14014;DHT22;49110;52.584;13.408;2023-02-24T11:32:37;7.40;99.60
14014;DHT22;49110;52.584;13.408;2023-02-24T11:34:02;7.30;99.60
14014;DHT22;49110;52.584;13.408;2023-02-24T11:35:25;7.20;99.80
14014;DHT22;49110;52.584;13.408;2023-02-24T11:36:45;7.10;99.90
14014;DHT22;49110;52.584;13.408;2023-02-24T11:39:46;7.00;99.90
14014;DHT22;49110;52.584;13.408;2023-02-24T11:41:04;7.00;99.90
14014;DHT22;49110;52.584;13.408;2023-02-24T11:42:18;7.00;99.90
14014;DHT22;49110;52.584;13.408;2023-02-24T11:43:22;7.00;99.90
14014;DHT22;49110;52.584;13.408;2023-02-24T11:44:35;7.00;99.90
14014;DHT22;49110;52.584;13.408;2023-02-24T11:45:57;7.00;99.90
14014;DHT22;49110;52.584;13.408;2023-02-24T11:47:03;7.00;99.90
14014;DHT22;49110;52.584;13.408;2023-02-24T11:48:14;7.00;99.90
14014;DHT22;49110;52.584;13.408;2023-02-24T11:51:57;7.00;99.90
14014;DHT22;49110;52.584;13.408;2023-02-24T11:53:03;7.00;99.90
14014;DHT22;49110;52.584;13.408;2023-02-24T11:54:10;7.00;99.90
14014;DHT22;49110;52.584;13.408;2023-02-24T11:55:26;6.90;99.90
14014;DHT22;49110;52.584;13.408;2023-02-24T11:56:30;6.90;99.90
14014;DHT22;49110;52.584;13.408;2023-02-24T11:57:39;6.90;99.90
14014;DHT22;49110;52.584;13.408;2023-02-24T12:00:13;6.80;99.90
14014;DHT22;49110;52.584;13.408;2023-02-24T12:01:27;6.80;99.90
14014;DHT22;49110;52.584;13.408;2023-02-24T12:04:18;6.60;99.90
14014;DHT22;49110;52.584;13.408;2023-02-24T12:05:25;6.60;99.90
14014;DHT22;49110;52.584;13.408;2023-02-24T12:06:31;6.70;99.90
14014;DHT22;49110;52.584;13.408;2023-02-24T12:07:38;6.70;99.90
14014;DHT22;49110;52.584;13.408;2023-02-24T12:08:42;6.70;99.90
14014;DHT22;49110;52.584;13.408;2023-02-24T12:09:51;6.70;99.90
14014;DHT22;49110;52.584;13.408;2023-02-24T12:11:15;6.70;99.90
14014;DHT22;49110;52.584;13.408;2023-02-24T12:13:35;6.70;99.90
14014;DHT22;49110;52.584;13.408;2023-02-24T12:14:46;6.80;99.90
14014;DHT22;49110;52.584;13.408;2023-02-24T12:16:02;6.80;99.90
14014;DHT22;49110;52.584;13.408;2023-02-24T12:17:15;6.80;99.90
14014;DHT22;49110;52.584;13.408;2023-02-24T12:18:26;6.80;99.90
14014;DHT22;49110;52.584;13.408;2023-02-24T12:19:35;6.80;99.90
14014;DHT22;49110;52.584;13.408;2023-02-24T12:22:13;6.90;99.90
14014;DHT22;49110;52.584;13.408;2023-02-24T12:23:19;6.80;99.90
14014;DHT22;49110;52.584;13.408;2023-02-24T12:24:22;6.80;99.90
14014;DHT22;49110;52.584;13.408;2023-02-24T12:25:30;6.70;99.90
14014;DHT22;49110;52.584;13.408;2023-02-24T12:28:23;6.80;99.90
14014;DHT22;49110;52.584;13.408;2023-02-24T12:29:46;6.70;99.90
14014;DHT22;49110;52.584;13.408;2023-02-24T12:31:01;6.70;99.90
14014;DHT22;49110;52.584;13.408;2023-02-24T12:33:03;6.70;99.90
14014;DHT22;49110;52.584;13.408;2023-02-24T12:33:55;6.70;99.90
14014;DHT22;49110;52.584;13.408;2023-02-24T12:35:27;6.70;99.90
14014;DHT22;49110;52.584;13.408;2023-02-24T12:37:54;6.60;99.90
14014;DHT22;49110;52.584;13.408;2023-02-24T12:39:11;6.50;99.90
14014;DHT22;49110;52.584;13.408;2023-02-24T12:41:37;6.50;99.90
14014;DHT22;49110;52.584;13.408;2023-02-24T12:43:03;6.60;99.90
14014;DHT22;49110;52.584;13.408;2023-02-24T12:44:26;6.60;99.90
14014;DHT22;49110;52.584;13.408;2023-02-24T12:45:50;6.50;99.90
14014;DHT22;49110;52.584;13.408;2023-02-24T12:48:46;6.60;99.90
14014;DHT22;49110;52.584;13.408;2023-02-24T12:51:06;6.60;99.90
14014;DHT22;49110;52.584;13.408;2023-02-24T12:56:14;6.60;99.90
14014;DHT22;49110;52.584;13.408;2023-02-24T12:57:24;6.50;99.90
14014;DHT22;49110;52.584;13.408;2023-02-24T12:58:36;6.50;99.90
14014;DHT22;49110;52.584;13.408;2023-02-24T12:59:39;6.50;99.90
14014;DHT22;49110;52.584;13.408;2023-02-24T13:00:52;6.40;99.90
14014;DHT22;49110;52.584;13.408;2023-02-24T13:02:11;6.40;99.90
14014;DHT22;49110;52.584;13.408;2023-02-24T13:06:14;6.40;99.90